Time;durP1;ratioP1;P1;durP2;ratioP2;P2;SDS_P1;SDS_P2;PMS_P1;PMS_P2;Temp;Humidity;BMP_temperature;BMP_pressure;BME280_temperature;BME280_humidity;BME280_pressure;Samples;Min_cycle;Max_cycle;Signal;HPM_P1;HPM_P2
2022/04/30 00:00:52;;;;;;;13.50;9.93;;;;;;;;;;4955638;29;20644;-75
2022/04/30 00:03:19;;;;;;;9.33;8.23;;;;;;;;;;4955178;29;20291;-75
2022/04/30 00:05:45;;;;;;;10.50;9.50;;;;;;;;;;4955086;29;20421;-76
2022/04/30 00:08:11;;;;;;;12.75;10.07;;;;;;;;;;4955162;29;20189;-75
2022/04/30 00:10:37;;;;;;;14.95;9.05;;;;;;;;;;4954180;28;20193;-76
2022/04/30 00:13:07;;;;;;;11.60;8.90;;;;;;;;;;4953721;29;20560;-76
2022/04/30 00:15:34;;;;;;;12.25;8.52;;;;;;;;;;4955193;29;20193;-76
2022/04/30 00:18:00;;;;;;;9.25;8.35;;;;;;;;;;4955078;28;20203;-76
2022/04/30 00:20:26;;;;;;;10.43;8.10;;;;;;;;;;4954904;29;20216;-75
2022/04/30 00:22:52;;;;;;;9.00;8.10;;;;;;;;;;4954606;29;20254;-78
2022/04/30 00:25:18;;;;;;;12.60;8.02;;;;;;;;;;4954893;29;20448;-77
2022/04/30 00:27:44;;;;;;;9.15;8.20;;;;;;;;;;4955399;29;20200;-75
2022/04/30 00:30:11;;;;;;;10.65;8.70;;;;;;;;;;4955460;29;20259;-77
2022/04/30 00:32:37;;;;;;;12.05;9.75;;;;;;;;;;4955387;29;20578;-76
2022/04/30 00:35:03;;;;;;;13.98;9.15;;;;;;;;;;4954295;29;20200;-77
2022/04/30 00:37:30;;;;;;;11.50;8.15;;;;;;;;;;4953948;29;20192;-77
2022/04/30 00:39:55;;;;;;;9.90;7.25;;;;;;;;;;4953590;29;20216;-76
2022/04/30 00:42:21;;;;;;;11.23;7.93;;;;;;;;;;4954453;28;20186;-77
2022/04/30 00:44:47;;;;;;;10.50;8.53;;;;;;;;;;4954676;29;20535;-77
2022/04/30 00:47:18;;;;;;;12.00;8.60;;;;;;;;;;4954027;29;20413;-77
2022/04/30 00:49:45;;;;;;;9.10;7.80;;;;;;;;;;4953712;29;20177;-75
2022/04/30 00:52:13;;;;;;;13.13;9.15;;;;;;;;;;4955153;29;20542;-79
2022/04/30 00:54:40;;;;;;;12.57;7.38;;;;;;;;;;4949898;29;20204;-76
2022/04/30 00:57:09;;;;;;;10.27;7.85;;;;;;;;;;4948409;29;20284;-75
2022/04/30 00:59:39;;;;;;;14.18;9.05;;;;;;;;;;4954840;29;20237;-77
2022/04/30 01:02:05;;;;;;;13.18;8.98;;;;;;;;;;4954781;29;20234;-76
2022/04/30 01:04:31;;;;;;;11.52;7.68;;;;;;;;;;4953115;29;20204;-74
2022/04/30 01:06:58;;;;;;;8.57;7.65;;;;;;;;;;4954789;29;20187;-76
2022/04/30 01:09:25;;;;;;;13.95;8.95;;;;;;;;;;4954673;29;20250;-76
2022/04/30 01:11:58;;;;;;;12.68;8.55;;;;;;;;;;4954723;29;20552;-75
2022/04/30 01:14:31;;;;;;;12.05;8.88;;;;;;;;;;4954304;29;20204;-76
2022/04/30 01:16:58;;;;;;;10.50;8.85;;;;;;;;;;4954987;29;20180;-76
2022/04/30 01:19:27;;;;;;;10.68;8.80;;;;;;;;;;4954601;29;20271;-75
2022/04/30 01:21:54;;;;;;;12.05;8.27;;;;;;;;;;4954295;29;20214;-76
2022/04/30 01:24:22;;;;;;;17.10;8.57;;;;;;;;;;4954091;28;20262;-77
2022/04/30 01:26:48;;;;;;;14.77;7.53;;;;;;;;;;4954352;28;20588;-76
2022/04/30 01:29:15;;;;;;;10.30;8.40;;;;;;;;;;4954515;29;20271;-77
2022/04/30 01:37:24;;;;;;;11.07;8.07;;;;;;;;;;4954947;29;20246;-76
2022/04/30 01:39:59;;;;;;;11.32;9.05;;;;;;;;;;4954537;29;20619;-77
2022/04/30 01:42:29;;;;;;;17.08;9.38;;;;;;;;;;4954440;29;20240;-76
2022/04/30 01:44:56;;;;;;;15.18;9.35;;;;;;;;;;4954164;29;20188;-76
2022/04/30 01:47:22;;;;;;;12.43;9.48;;;;;;;;;;4954255;29;20192;-76
2022/04/30 01:49:48;;;;;;;18.27;9.55;;;;;;;;;;4954578;29;20558;-77
2022/04/30 01:52:15;;;;;;;11.53;8.47;;;;;;;;;;4954792;28;20220;-78
2022/04/30 01:54:42;;;;;;;15.13;9.13;;;;;;;;;;4957530;29;20437;-77
2022/04/30 01:57:08;;;;;;;15.60;9.32;;;;;;;;;;4957779;29;20266;-78
2022/04/30 01:59:34;;;;;;;12.32;7.93;;;;;;;;;;4958019;29;20222;-75
2022/04/30 02:02:02;;;;;;;15.05;8.98;;;;;;;;;;4958085;29;20173;-77
2022/04/30 02:04:28;;;;;;;14.15;9.50;;;;;;;;;;4957504;29;20191;-75
2022/04/30 02:06:55;;;;;;;13.15;9.20;;;;;;;;;;4957392;29;20181;-76
2022/04/30 02:09:21;;;;;;;12.77;9.35;;;;;;;;;;4956355;29;20266;-77
2022/04/30 02:11:47;;;;;;;17.20;9.95;;;;;;;;;;4957626;29;20184;-76
2022/04/30 02:14:15;;;;;;;13.40;9.90;;;;;;;;;;4957087;29;20575;-78
2022/04/30 02:16:42;;;;;;;11.85;8.73;;;;;;;;;;4957539;29;20176;-76
2022/04/30 02:19:09;;;;;;;12.00;9.48;;;;;;;;;;4957215;29;20201;-76
2022/04/30 02:21:36;;;;;;;35.05;11.38;;;;;;;;;;4957379;29;20180;-77
2022/04/30 02:24:02;;;;;;;16.20;9.05;;;;;;;;;;4955803;29;20209;-77
2022/04/30 02:26:29;;;;;;;11.88;8.40;;;;;;;;;;4956080;29;20191;-76
2022/04/30 02:28:56;;;;;;;10.32;8.50;;;;;;;;;;4957250;29;20194;-77
2022/04/30 02:31:25;;;;;;;12.50;9.45;;;;;;;;;;4957317;28;20642;-77
2022/04/30 02:33:55;;;;;;;13.45;9.45;;;;;;;;;;4956898;29;20579;-77
2022/04/30 02:36:27;;;;;;;9.80;7.95;;;;;;;;;;4957569;28;20198;-78
2022/04/30 02:38:59;;;;;;;11.48;8.75;;;;;;;;;;4957154;29;20273;-75
2022/04/30 02:41:26;;;;;;;14.10;8.50;;;;;;;;;;4956931;28;20262;-77
2022/04/30 02:43:53;;;;;;;13.18;9.38;;;;;;;;;;4956765;28;20198;-78
2022/04/30 02:46:22;;;;;;;17.65;10.20;;;;;;;;;;4955637;29;20555;-76
2022/04/30 02:48:49;;;;;;;18.27;9.50;;;;;;;;;;4957145;28;20566;-76
2022/04/30 02:51:15;;;;;;;14.38;8.13;;;;;;;;;;4956893;29;20533;-76
2022/04/30 02:53:42;;;;;;;15.50;8.43;;;;;;;;;;4956201;29;20209;-77
2022/04/30 02:56:10;;;;;;;11.27;8.60;;;;;;;;;;4957055;29;20184;-77
2022/04/30 03:01:20;;;;;;;11.95;8.60;;;;;;;;;;4957062;29;20315;-78
2022/04/30 03:03:50;;;;;;;14.13;8.43;;;;;;;;;;4955996;28;20217;-78
2022/04/30 03:06:17;;;;;;;11.55;9.10;;;;;;;;;;4956308;29;20181;-75
2022/04/30 03:08:47;;;;;;;10.85;8.90;;;;;;;;;;4956169;29;20192;-77
2022/04/30 03:11:13;;;;;;;12.45;8.48;;;;;;;;;;4956408;29;20177;-75
2022/04/30 03:13:40;;;;;;;15.48;8.77;;;;;;;;;;4956034;29;20205;-76
2022/04/30 03:21:46;;;;;;;17.45;9.48;;;;;;;;;;4956251;29;20651;-77
2022/04/30 03:24:15;;;;;;;13.45;9.07;;;;;;;;;;4955904;29;20289;-76
2022/04/30 03:26:42;;;;;;;13.57;8.70;;;;;;;;;;4956479;29;20181;-76
2022/04/30 03:29:08;;;;;;;18.95;9.45;;;;;;;;;;4956217;29;20340;-76
2022/04/30 03:31:34;;;;;;;18.67;11.00;;;;;;;;;;4955023;28;20282;-76
2022/04/30 03:34:01;;;;;;;12.10;8.70;;;;;;;;;;4955408;28;20451;-76
2022/04/30 03:36:27;;;;;;;11.98;9.13;;;;;;;;;;4955975;29;20420;-77
2022/04/30 03:38:53;;;;;;;15.13;8.95;;;;;;;;;;4954742;29;20234;-76
2022/04/30 03:41:19;;;;;;;10.33;7.80;;;;;;;;;;4956387;29;20220;-78
2022/04/30 03:43:45;;;;;;;17.08;8.73;;;;;;;;;;4955513;29;20461;-76
2022/04/30 03:46:11;;;;;;;11.05;9.07;;;;;;;;;;4955967;29;20183;-77
2022/04/30 03:48:37;;;;;;;14.38;8.32;;;;;;;;;;4955859;29;20187;-77
2022/04/30 03:51:05;;;;;;;13.07;9.70;;;;;;;;;;4955945;29;20184;-75
2022/04/30 03:53:32;;;;;;;19.70;8.93;;;;;;;;;;4954089;29;20447;-77
2022/04/30 03:55:58;;;;;;;10.07;8.40;;;;;;;;;;4955608;28;20190;-77
2022/04/30 03:58:24;;;;;;;10.60;9.52;;;;;;;;;;4955698;29;20187;-77
2022/04/30 04:00:51;;;;;;;10.65;8.90;;;;;;;;;;4955648;29;20182;-76
2022/04/30 04:03:17;;;;;;;13.93;8.60;;;;;;;;;;4954894;28;20298;-76
2022/04/30 04:05:43;;;;;;;13.48;9.05;;;;;;;;;;4955690;29;20263;-76
2022/04/30 04:08:14;;;;;;;13.27;9.00;;;;;;;;;;4955358;29;20179;-76
2022/04/30 04:10:41;;;;;;;11.70;9.35;;;;;;;;;;4954423;29;20483;-76
2022/04/30 04:18:36;;;;;;;13.38;7.90;;;;;;;;;;4955599;29;20209;-76
2022/04/30 04:21:02;;;;;;;11.05;8.00;;;;;;;;;;4955309;29;20266;-75
2022/04/30 04:23:28;;;;;;;16.25;9.25;;;;;;;;;;4954686;29;20222;-76
2022/04/30 04:26:00;;;;;;;17.88;9.57;;;;;;;;;;4955254;29;20181;-76
2022/04/30 04:28:30;;;;;;;13.00;9.23;;;;;;;;;;4953782;29;20213;-75
2022/04/30 04:30:57;;;;;;;15.98;8.63;;;;;;;;;;4955028;29;20534;-76
2022/04/30 04:33:23;;;;;;;13.40;9.43;;;;;;;;;;4954764;29;20317;-77
2022/04/30 04:35:49;;;;;;;10.73;8.75;;;;;;;;;;4955026;29;20179;-77
2022/04/30 04:38:15;;;;;;;17.42;8.98;;;;;;;;;;4954818;29;20175;-75
2022/04/30 04:40:41;;;;;;;12.80;8.52;;;;;;;;;;4954707;29;20741;-77
2022/04/30 04:43:07;;;;;;;14.40;9.87;;;;;;;;;;4954647;29;20185;-76
2022/04/30 04:45:33;;;;;;;13.18;9.10;;;;;;;;;;4954862;29;20417;-76
2022/04/30 04:47:59;;;;;;;14.57;8.90;;;;;;;;;;4954880;29;20702;-76
2022/04/30 04:50:25;;;;;;;12.52;8.55;;;;;;;;;;4954791;29;20503;-76
2022/04/30 04:52:51;;;;;;;12.18;8.63;;;;;;;;;;4954535;29;20185;-76
2022/04/30 04:55:17;;;;;;;9.60;8.20;;;;;;;;;;4954939;29;20210;-76
2022/04/30 04:57:43;;;;;;;11.77;8.68;;;;;;;;;;4953591;29;20737;-75
2022/04/30 05:00:10;;;;;;;14.85;8.90;;;;;;;;;;4954799;29;20219;-75
2022/04/30 05:02:36;;;;;;;15.00;9.20;;;;;;;;;;4953490;29;20186;-76
2022/04/30 05:05:03;;;;;;;13.02;9.82;;;;;;;;;;4954562;29;20205;-76
2022/04/30 05:07:29;;;;;;;14.27;10.00;;;;;;;;;;4954494;29;20175;-75
2022/04/30 05:09:55;;;;;;;14.10;9.53;;;;;;;;;;4954865;28;20182;-76
2022/04/30 05:12:21;;;;;;;13.73;8.47;;;;;;;;;;4954657;29;20428;-76
2022/04/30 05:14:48;;;;;;;14.93;8.75;;;;;;;;;;4954147;29;20501;-76
2022/04/30 05:17:14;;;;;;;12.02;8.60;;;;;;;;;;4954779;29;20190;-76
2022/04/30 05:19:40;;;;;;;13.75;8.65;;;;;;;;;;4954648;29;20207;-77
2022/04/30 05:22:06;;;;;;;10.15;7.88;;;;;;;;;;4954380;29;20265;-77
2022/04/30 05:24:32;;;;;;;12.63;9.03;;;;;;;;;;4953955;29;20300;-76
2022/04/30 05:26:59;;;;;;;14.40;8.57;;;;;;;;;;4954408;28;20427;-77
2022/04/30 05:29:24;;;;;;;13.88;9.13;;;;;;;;;;4958323;29;20251;-75
2022/04/30 05:31:50;;;;;;;13.87;8.30;;;;;;;;;;4958471;29;20572;-77
2022/04/30 05:34:16;;;;;;;10.23;8.23;;;;;;;;;;4956428;29;20557;-76
2022/04/30 05:36:42;;;;;;;10.77;8.33;;;;;;;;;;4956994;29;20422;-76
2022/04/30 05:39:08;;;;;;;10.30;8.63;;;;;;;;;;4958131;29;20474;-77
2022/04/30 05:41:34;;;;;;;13.88;8.75;;;;;;;;;;4958272;29;20254;-75
2022/04/30 05:44:00;;;;;;;11.80;8.05;;;;;;;;;;4956719;29;20203;-76
2022/04/30 05:46:26;;;;;;;14.32;9.05;;;;;;;;;;4958053;29;20178;-75
2022/04/30 05:48:52;;;;;;;11.83;8.40;;;;;;;;;;4958105;29;20293;-75
2022/04/30 05:51:20;;;;;;;11.47;7.80;;;;;;;;;;4958257;29;20419;-77
2022/04/30 05:53:46;;;;;;;11.48;8.00;;;;;;;;;;4957443;29;20451;-78
2022/04/30 05:56:11;;;;;;;13.03;7.50;;;;;;;;;;4957894;29;20186;-76
2022/04/30 05:58:38;;;;;;;11.93;7.90;;;;;;;;;;4958005;29;20436;-76
2022/04/30 06:01:03;;;;;;;18.70;8.70;;;;;;;;;;4956159;29;20454;-77
2022/04/30 06:03:31;;;;;;;13.23;8.53;;;;;;;;;;4956958;29;20684;-77
2022/04/30 06:05:57;;;;;;;11.25;7.82;;;;;;;;;;4957568;29;20821;-75
2022/04/30 06:08:23;;;;;;;11.75;8.13;;;;;;;;;;4956627;29;20215;-76
2022/04/30 06:10:49;;;;;;;12.53;7.77;;;;;;;;;;4957567;29;20187;-76
2022/04/30 06:13:15;;;;;;;12.75;8.25;;;;;;;;;;4957210;28;20420;-75
2022/04/30 06:15:41;;;;;;;12.18;8.70;;;;;;;;;;4957615;29;20188;-75
2022/04/30 06:18:08;;;;;;;15.80;8.27;;;;;;;;;;4956439;29;20182;-75
2022/04/30 06:20:34;;;;;;;12.10;7.40;;;;;;;;;;4957496;28;20211;-76
2022/04/30 06:23:00;;;;;;;12.85;7.75;;;;;;;;;;4956823;29;20214;-76
2022/04/30 06:25:27;;;;;;;12.00;8.45;;;;;;;;;;4957422;29;20849;-76
2022/04/30 06:27:53;;;;;;;11.68;7.00;;;;;;;;;;4956126;29;20215;-78
2022/04/30 06:30:19;;;;;;;10.23;7.75;;;;;;;;;;4957113;29;20188;-76
2022/04/30 06:32:45;;;;;;;16.70;8.25;;;;;;;;;;4957504;29;20234;-75
2022/04/30 06:35:11;;;;;;;8.93;6.97;;;;;;;;;;4956814;29;20224;-76
2022/04/30 06:37:37;;;;;;;8.63;6.95;;;;;;;;;;4957147;29;20487;-77
2022/04/30 06:40:05;;;;;;;13.20;6.90;;;;;;;;;;4956169;28;20546;-77
2022/04/30 06:42:39;;;;;;;13.57;8.10;;;;;;;;;;4957449;29;20479;-76
2022/04/30 06:45:05;;;;;;;9.80;6.25;;;;;;;;;;4958298;28;20247;-75
2022/04/30 06:47:31;;;;;;;10.88;7.45;;;;;;;;;;4957650;29;20185;-75
2022/04/30 06:49:57;;;;;;;8.15;6.97;;;;;;;;;;4956934;29;20203;-76
2022/04/30 06:52:23;;;;;;;10.67;6.97;;;;;;;;;;4956774;29;20178;-76
2022/04/30 06:57:34;;;;;;;15.23;7.30;;;;;;;;;;4937895;29;20562;-75
2022/04/30 07:00:39;;;;;;;11.02;6.88;;;;;;;;;;4952306;29;20299;-76
2022/04/30 07:02:46;;;;;;;10.25;6.50;;;;;;;;;;4937484;29;20246;-75
2022/04/30 07:05:12;;;;;;;11.18;5.90;;;;;;;;;;4937196;29;20202;-75
2022/04/30 07:07:38;;;;;;;12.30;6.60;;;;;;;;;;4948595;29;20195;-75
2022/04/30 07:10:04;;;;;;;7.67;6.13;;;;;;;;;;4956686;29;20761;-75
2022/04/30 07:12:30;;;;;;;6.68;5.93;;;;;;;;;;4956481;29;20825;-75
2022/04/30 07:14:56;;;;;;;10.67;6.50;;;;;;;;;;4956068;29;20260;-77
2022/04/30 07:17:22;;;;;;;8.77;6.60;;;;;;;;;;4956370;29;20468;-75
2022/04/30 07:19:48;;;;;;;10.20;7.30;;;;;;;;;;4956132;29;20592;-75
2022/04/30 07:22:15;;;;;;;12.87;7.53;;;;;;;;;;4956348;29;20421;-75
2022/04/30 07:24:41;;;;;;;11.13;6.38;;;;;;;;;;4954594;28;20507;-76
2022/04/30 07:27:08;;;;;;;8.15;6.15;;;;;;;;;;4956388;29;20174;-75
2022/04/30 07:29:35;;;;;;;9.38;6.00;;;;;;;;;;4955986;28;20268;-75
2022/04/30 07:32:01;;;;;;;9.15;6.10;;;;;;;;;;4954930;29;20220;-76
2022/04/30 07:34:27;;;;;;;12.10;6.25;;;;;;;;;;4955759;29;20205;-75
2022/04/30 07:36:53;;;;;;;8.48;6.30;;;;;;;;;;4956218;29;20193;-76
2022/04/30 07:39:19;;;;;;;11.48;6.40;;;;;;;;;;4956021;29;20265;-76
2022/04/30 07:41:45;;;;;;;7.90;5.60;;;;;;;;;;4956129;29;20204;-75
2022/04/30 07:44:11;;;;;;;9.03;4.93;;;;;;;;;;4955677;29;20458;-76
2022/04/30 07:46:37;;;;;;;8.50;4.87;;;;;;;;;;4955687;29;20429;-76
2022/04/30 07:49:03;;;;;;;5.30;3.80;;;;;;;;;;4956101;29;20413;-76
2022/04/30 07:51:42;;;;;;;7.70;4.47;;;;;;;;;;4955841;28;20665;-76
2022/04/30 07:54:08;;;;;;;7.25;5.50;;;;;;;;;;4955393;28;20503;-76
2022/04/30 07:56:34;;;;;;;6.35;4.57;;;;;;;;;;4955745;29;20256;-74
2022/04/30 07:59:00;;;;;;;6.10;5.17;;;;;;;;;;4952569;29;20291;-75
2022/04/30 08:01:26;;;;;;;7.80;3.78;;;;;;;;;;4955109;29;20429;-76
2022/04/30 08:03:52;;;;;;;6.33;4.53;;;;;;;;;;4954934;29;20721;-76
2022/04/30 08:06:18;;;;;;;5.83;4.33;;;;;;;;;;4955381;29;20508;-76
2022/04/30 08:08:44;;;;;;;9.47;4.27;;;;;;;;;;4954958;29;20416;-76
2022/04/30 08:11:10;;;;;;;6.00;4.47;;;;;;;;;;4955252;29;20416;-76
2022/04/30 08:13:36;;;;;;;5.80;4.33;;;;;;;;;;4954329;29;20448;-76
2022/04/30 08:16:02;;;;;;;8.93;4.70;;;;;;;;;;4954015;29;20425;-73
2022/04/30 08:18:28;;;;;;;5.83;4.30;;;;;;;;;;4953556;29;20425;-75
2022/04/30 08:20:54;;;;;;;8.90;4.90;;;;;;;;;;4954598;29;20454;-77
2022/04/30 08:23:22;;;;;;;7.43;5.23;;;;;;;;;;4954704;29;20445;-75
2022/04/30 08:25:48;;;;;;;7.40;4.73;;;;;;;;;;4954716;29;20484;-77
2022/04/30 08:28:14;;;;;;;6.93;4.20;;;;;;;;;;4954034;29;20422;-75
2022/04/30 08:30:41;;;;;;;6.10;4.50;;;;;;;;;;4954892;29;20531;-78
2022/04/30 08:33:07;;;;;;;7.03;3.97;;;;;;;;;;4954792;28;20413;-74
2022/04/30 08:35:33;;;;;;;5.23;4.17;;;;;;;;;;4954605;29;20460;-73
2022/04/30 08:37:59;;;;;;;7.10;5.20;;;;;;;;;;4955014;29;20969;-74
2022/04/30 08:40:26;;;;;;;6.30;3.80;;;;;;;;;;4954296;29;20435;-74
2022/04/30 08:42:51;;;;;;;5.97;4.23;;;;;;;;;;4953772;29;20454;-77
2022/04/30 08:45:18;;;;;;;7.63;4.03;;;;;;;;;;4955144;29;20436;-73
2022/04/30 08:47:47;;;;;;;4.13;3.60;;;;;;;;;;4953471;29;20391;-75
2022/04/30 08:50:15;;;;;;;5.00;2.80;;;;;;;;;;4954243;29;20535;-73
2022/04/30 08:52:41;;;;;;;4.00;3.30;;;;;;;;;;4953926;29;20494;-78
2022/04/30 08:55:08;;;;;;;3.87;3.07;;;;;;;;;;4954366;29;20411;-77
2022/04/30 08:57:34;;;;;;;5.30;3.00;;;;;;;;;;4954379;29;20395;-75
2022/04/30 09:00:00;;;;;;;5.37;3.40;;;;;;;;;;4954273;29;20472;-75
2022/04/30 09:02:26;;;;;;;6.17;3.53;;;;;;;;;;4952727;28;20425;-74
2022/04/30 09:04:54;;;;;;;5.40;3.40;;;;;;;;;;4954473;29;20468;-74
2022/04/30 09:07:21;;;;;;;6.27;3.53;;;;;;;;;;4954695;28;20400;-75
2022/04/30 09:09:57;;;;;;;4.20;3.80;;;;;;;;;;4953929;29;20462;-77
2022/04/30 09:12:23;;;;;;;4.87;3.50;;;;;;;;;;4954468;29;20416;-76
2022/04/30 09:14:49;;;;;;;4.60;4.10;;;;;;;;;;4954196;29;20507;-75
2022/04/30 09:17:16;;;;;;;7.43;3.53;;;;;;;;;;4953968;29;20463;-74
2022/04/30 09:19:46;;;;;;;5.27;3.77;;;;;;;;;;4952984;28;20518;-75
2022/04/30 09:22:12;;;;;;;5.20;3.63;;;;;;;;;;4954237;29;20399;-74
2022/04/30 09:24:48;;;;;;;5.63;3.50;;;;;;;;;;4954038;29;20886;-75
2022/04/30 09:27:14;;;;;;;5.10;3.33;;;;;;;;;;4954924;28;20379;-75
2022/04/30 09:29:40;;;;;;;6.70;3.50;;;;;;;;;;4954916;29;20391;-76
2022/04/30 09:32:06;;;;;;;7.57;3.90;;;;;;;;;;4955042;29;20407;-74
2022/04/30 09:37:52;;;;;;;3.80;3.00;;;;;;;;;;5030077;23;20557;-74
2022/04/30 09:40:19;;;;;;;5.50;4.00;;;;;;;;;;4993269;28;20803;-75
2022/04/30 09:42:46;;;;;;;6.53;3.97;;;;;;;;;;4993429;28;20423;-75
2022/04/30 09:45:25;;;;;;;3.67;3.37;;;;;;;;;;4992883;28;20423;-75
2022/04/30 09:47:53;;;;;;;6.23;3.50;;;;;;;;;;4988556;28;20429;-76
2022/04/30 09:55:53;;;;;;;6.53;3.87;;;;;;;;;;4974109;28;20782;-76
2022/04/30 09:58:21;;;;;;;4.03;3.60;;;;;;;;;;4973789;28;20902;-73
2022/04/30 10:00:47;;;;;;;5.23;3.20;;;;;;;;;;4973528;28;20442;-75
2022/04/30 10:03:13;;;;;;;9.30;3.63;;;;;;;;;;4983701;28;20487;-76
2022/04/30 10:05:41;;;;;;;5.20;4.20;;;;;;;;;;4972509;28;20484;-76
2022/04/30 10:08:08;;;;;;;6.53;3.77;;;;;;;;;;4973828;28;20449;-74
2022/04/30 10:10:38;;;;;;;6.03;3.97;;;;;;;;;;4963959;28;20395;-75
2022/04/30 10:13:10;;;;;;;6.37;3.10;;;;;;;;;;4973587;28;20753;-75
2022/04/30 10:15:53;;;;;;;5.20;3.70;;;;;;;;;;4981019;28;20439;-76
2022/04/30 10:18:23;;;;;;;4.30;3.30;;;;;;;;;;4996534;28;20425;-75
2022/04/30 10:20:59;;;;;;;5.63;4.00;;;;;;;;;;4996345;28;20552;-75
2022/04/30 10:23:30;;;;;;;4.80;4.10;;;;;;;;;;4979771;28;20434;-76
2022/04/30 10:26:06;;;;;;;6.70;3.80;;;;;;;;;;4996378;28;20502;-77
2022/04/30 10:28:32;;;;;;;5.33;4.13;;;;;;;;;;4996196;28;20457;-76
2022/04/30 10:31:02;;;;;;;4.40;4.00;;;;;;;;;;4980041;28;20436;-75
2022/04/30 10:33:28;;;;;;;4.27;3.80;;;;;;;;;;4976312;28;20444;-76
2022/04/30 10:36:07;;;;;;;4.40;4.00;;;;;;;;;;4976392;28;20420;-74
2022/04/30 10:38:33;;;;;;;4.87;4.13;;;;;;;;;;4978319;28;20436;-74
2022/04/30 10:41:00;;;;;;;7.50;4.60;;;;;;;;;;4995266;28;20466;-74
2022/04/30 10:43:37;;;;;;;5.13;4.13;;;;;;;;;;4995713;28;20467;-75
2022/04/30 10:46:05;;;;;;;6.87;3.83;;;;;;;;;;4996168;28;20748;-74
2022/04/30 10:48:32;;;;;;;4.73;4.10;;;;;;;;;;4995784;28;20385;-74
2022/04/30 10:51:05;;;;;;;4.10;3.70;;;;;;;;;;4992497;28;20416;-75
2022/04/30 10:53:32;;;;;;;5.23;3.40;;;;;;;;;;4975687;28;21251;-74
2022/04/30 10:55:58;;;;;;;4.17;3.77;;;;;;;;;;4976215;28;20455;-75
2022/04/30 10:58:25;;;;;;;4.17;3.77;;;;;;;;;;4976455;28;20415;-74
2022/04/30 11:00:51;;;;;;;5.47;3.80;;;;;;;;;;4976133;28;20577;-76
2022/04/30 11:03:17;;;;;;;4.30;3.47;;;;;;;;;;4976156;28;20563;-75
2022/04/30 11:05:43;;;;;;;6.93;4.13;;;;;;;;;;4976432;28;20455;-75
2022/04/30 11:08:10;;;;;;;5.40;3.70;;;;;;;;;;4973469;28;20486;-73
2022/04/30 11:10:36;;;;;;;3.90;3.50;;;;;;;;;;4975458;28;20495;-73
2022/04/30 11:13:08;;;;;;;3.53;3.23;;;;;;;;;;4974996;28;20843;-75
2022/04/30 11:15:34;;;;;;;3.93;3.23;;;;;;;;;;4958470;28;20931;-75
2022/04/30 11:18:00;;;;;;;4.80;3.77;;;;;;;;;;4975858;28;20445;-76
2022/04/30 11:20:27;;;;;;;4.87;3.73;;;;;;;;;;4993542;28;20467;-73
2022/04/30 11:22:56;;;;;;;5.10;3.90;;;;;;;;;;4994306;28;20426;-75
2022/04/30 11:25:23;;;;;;;4.17;3.40;;;;;;;;;;4977000;28;20415;-77
2022/04/30 11:27:56;;;;;;;5.13;3.60;;;;;;;;;;4994953;28;20494;-77
2022/04/30 11:30:22;;;;;;;4.73;3.67;;;;;;;;;;4994687;28;20891;-76
2022/04/30 11:32:49;;;;;;;6.77;4.17;;;;;;;;;;4987836;28;20483;-76
2022/04/30 11:35:19;;;;;;;5.60;3.53;;;;;;;;;;4974955;28;20493;-77
2022/04/30 11:37:45;;;;;;;5.23;3.53;;;;;;;;;;4974682;28;20438;-77
2022/04/30 11:40:12;;;;;;;6.80;4.27;;;;;;;;;;4975528;28;20489;-76
2022/04/30 11:42:38;;;;;;;5.47;4.50;;;;;;;;;;4975253;28;20765;-75
2022/04/30 11:45:04;;;;;;;6.00;4.17;;;;;;;;;;4974355;28;20543;-75
2022/04/30 11:47:31;;;;;;;8.23;5.10;;;;;;;;;;4988437;28;20393;-77
2022/04/30 11:50:03;;;;;;;9.83;4.60;;;;;;;;;;4994403;28;20414;-75
2022/04/30 11:52:30;;;;;;;4.57;4.17;;;;;;;;;;4976596;28;20512;-76
2022/04/30 11:54:56;;;;;;;4.97;3.93;;;;;;;;;;4993893;28;20418;-74
2022/04/30 11:57:22;;;;;;;3.97;3.30;;;;;;;;;;4994078;28;20431;-77
2022/04/30 11:59:48;;;;;;;5.23;4.23;;;;;;;;;;4991917;28;20463;-74
2022/04/30 12:02:16;;;;;;;5.03;4.17;;;;;;;;;;4974759;28;20412;-74
2022/04/30 12:04:43;;;;;;;13.87;8.60;;;;;;;;;;4973844;28;20407;-75
2022/04/30 12:07:10;;;;;;;4.97;4.47;;;;;;;;;;4974450;28;20751;-74
2022/04/30 12:09:38;;;;;;;5.93;4.50;;;;;;;;;;4974270;28;20416;-74
2022/04/30 12:12:24;;;;;;;7.63;5.40;;;;;;;;;;4974449;28;20455;-77
2022/04/30 12:14:51;;;;;;;6.23;4.23;;;;;;;;;;4985571;28;20497;-74
2022/04/30 12:17:17;;;;;;;4.73;4.10;;;;;;;;;;4976987;28;21008;-77
2022/04/30 12:25:14;;;;;;;5.97;4.73;;;;;;;;;;4979199;28;20517;-74
2022/04/30 12:27:41;;;;;;;5.27;4.77;;;;;;;;;;4993833;28;20378;-74
2022/04/30 12:30:09;;;;;;;8.60;5.50;;;;;;;;;;4977449;28;20485;-77
2022/04/30 12:32:45;;;;;;;6.97;4.40;;;;;;;;;;4957191;28;20894;-76
2022/04/30 12:35:13;;;;;;;5.63;4.63;;;;;;;;;;4974262;28;20418;-76
2022/04/30 12:37:39;;;;;;;4.80;4.30;;;;;;;;;;4973651;28;20912;-75
2022/04/30 12:40:05;;;;;;;8.20;4.73;;;;;;;;;;4988843;28;20855;-78
2022/04/30 12:42:31;;;;;;;5.10;4.00;;;;;;;;;;4993857;28;20411;-77
2022/04/30 12:44:57;;;;;;;6.03;4.30;;;;;;;;;;4993502;28;20518;-74
2022/04/30 12:47:23;;;;;;;5.30;4.60;;;;;;;;;;4993741;28;20525;-74
2022/04/30 12:49:49;;;;;;;4.97;4.57;;;;;;;;;;4976174;28;20526;-76
2022/04/30 12:52:15;;;;;;;13.10;5.00;;;;;;;;;;4992979;28;20426;-76
2022/04/30 12:54:42;;;;;;;5.43;4.00;;;;;;;;;;4975912;28;20526;-74
2022/04/30 12:57:08;;;;;;;6.90;5.63;;;;;;;;;;4993854;28;20414;-73
2022/04/30 12:59:34;;;;;;;6.83;5.27;;;;;;;;;;4993666;28;20466;-75
2022/04/30 13:02:00;;;;;;;5.33;4.83;;;;;;;;;;4976232;28;20427;-75
2022/04/30 13:04:26;;;;;;;5.70;4.37;;;;;;;;;;4993531;28;20443;-74
2022/04/30 13:06:52;;;;;;;5.17;4.00;;;;;;;;;;4993603;28;20426;-78
2022/04/30 13:14:47;;;;;;;7.23;4.33;;;;;;;;;;5062087;23;20558;-75
2022/04/30 13:17:13;;;;;;;5.07;3.90;;;;;;;;;;4974067;28;20424;-77
2022/04/30 13:19:42;;;;;;;8.03;4.17;;;;;;;;;;4956725;28;20471;-74
2022/04/30 13:22:08;;;;;;;4.63;4.13;;;;;;;;;;4973917;28;20443;-77
2022/04/30 13:24:34;;;;;;;4.60;4.03;;;;;;;;;;4973320;28;20842;-74
2022/04/30 13:27:00;;;;;;;5.63;4.20;;;;;;;;;;4973963;28;20742;-75
2022/04/30 13:29:26;;;;;;;4.20;3.80;;;;;;;;;;4974191;28;20441;-77
2022/04/30 13:31:52;;;;;;;4.63;3.20;;;;;;;;;;4956704;28;20395;-76
2022/04/30 13:34:21;;;;;;;4.70;3.87;;;;;;;;;;4973726;28;20494;-75
2022/04/30 13:36:47;;;;;;;4.07;3.70;;;;;;;;;;4974063;28;20457;-73
2022/04/30 13:39:13;;;;;;;4.83;3.37;;;;;;;;;;4973907;28;20438;-72
2022/04/30 13:41:39;;;;;;;4.90;3.57;;;;;;;;;;4985282;28;20813;-75
2022/04/30 13:44:07;;;;;;;7.00;3.30;;;;;;;;;;4992795;28;20482;-75
2022/04/30 13:46:33;;;;;;;5.93;3.23;;;;;;;;;;4993352;28;20385;-73
2022/04/30 13:48:59;;;;;;;3.70;3.27;;;;;;;;;;4995008;28;20427;-72
2022/04/30 13:51:25;;;;;;;4.50;4.10;;;;;;;;;;4976796;28;20430;-74
2022/04/30 13:53:51;;;;;;;3.40;3.10;;;;;;;;;;4977030;28;20450;-74
2022/04/30 13:56:17;;;;;;;7.30;3.20;;;;;;;;;;4960458;28;20470;-73
2022/04/30 13:58:43;;;;;;;4.90;3.60;;;;;;;;;;4977642;28;20394;-75
2022/04/30 14:01:12;;;;;;;3.50;2.80;;;;;;;;;;4977524;28;20467;-75
2022/04/30 14:03:37;;;;;;;3.90;3.10;;;;;;;;;;4959941;28;20448;-78
2022/04/30 14:06:03;;;;;;;9.33;3.53;;;;;;;;;;4977566;28;20446;-75
2022/04/30 14:08:29;;;;;;;4.83;3.43;;;;;;;;;;4977745;28;20420;-75
2022/04/30 14:10:55;;;;;;;4.30;3.13;;;;;;;;;;4977355;28;20391;-75
2022/04/30 14:16:06;;;;;;;4.70;3.30;;;;;;;;;;4962967;28;20776;-74
2022/04/30 14:18:33;;;;;;;6.90;5.50;;;;;;;;;;4977019;28;20404;-73
2022/04/30 14:21:03;;;;;;;3.70;3.33;;;;;;;;;;4976841;28;20485;-74
2022/04/30 14:23:30;;;;;;;8.67;5.50;;;;;;;;;;4976546;28;20421;-74
2022/04/30 14:25:56;;;;;;;8.40;5.57;;;;;;;;;;4959673;28;20499;-77
2022/04/30 14:28:23;;;;;;;6.40;5.80;;;;;;;;;;4976802;28;20451;-75
2022/04/30 14:30:49;;;;;;;7.30;5.60;;;;;;;;;;4968816;28;20432;-74
2022/04/30 14:33:15;;;;;;;8.60;5.90;;;;;;;;;;4976465;28;20393;-76
2022/04/30 14:35:41;;;;;;;9.43;3.47;;;;;;;;;;4976898;28;20491;-78
2022/04/30 14:38:15;;;;;;;9.07;3.30;;;;;;;;;;4976840;28;20727;-76
2022/04/30 14:40:44;;;;;;;8.83;3.30;;;;;;;;;;4957848;28;20522;-74
2022/04/30 14:43:11;;;;;;;4.23;2.70;;;;;;;;;;4957096;29;20413;-74
2022/04/30 14:45:41;;;;;;;3.90;2.90;;;;;;;;;;4969502;28;20970;-74
2022/04/30 14:48:07;;;;;;;3.77;2.80;;;;;;;;;;4985441;28;20920;-75
2022/04/30 14:50:33;;;;;;;3.87;2.97;;;;;;;;;;4977434;28;20442;-74
2022/04/30 14:52:59;;;;;;;4.60;2.67;;;;;;;;;;4976203;28;20519;-74
2022/04/30 14:55:29;;;;;;;3.27;2.83;;;;;;;;;;4959470;28;20402;-73
2022/04/30 14:57:55;;;;;;;3.93;2.73;;;;;;;;;;4960000;28;20885;-74
2022/04/30 15:00:21;;;;;;;5.83;3.83;;;;;;;;;;4958267;28;20472;-77
2022/04/30 15:02:47;;;;;;;12.53;8.10;;;;;;;;;;4976185;28;20507;-76
2022/04/30 15:05:14;;;;;;;4.53;2.60;;;;;;;;;;4976301;28;20406;-76
2022/04/30 15:07:40;;;;;;;3.03;2.83;;;;;;;;;;4976384;28;20406;-75
2022/04/30 15:10:06;;;;;;;5.30;4.50;;;;;;;;;;4975939;28;20703;-77
2022/04/30 15:12:34;;;;;;;3.33;2.90;;;;;;;;;;4976299;28;20389;-74
2022/04/30 15:15:00;;;;;;;5.10;3.13;;;;;;;;;;4975832;28;20450;-77
2022/04/30 15:17:27;;;;;;;5.13;3.20;;;;;;;;;;4976250;28;20413;-77
2022/04/30 15:19:53;;;;;;;7.90;6.27;;;;;;;;;;4959280;28;20487;-76